createdAt,value
2023-05-19T00:01:17.794Z,101988.75
2023-05-19T00:03:52.742Z,101979.00
2023-05-19T00:06:27.270Z,101979.94
2023-05-19T00:09:12.673Z,101984.13
2023-05-19T00:11:40.437Z,101977.81
2023-05-19T00:14:09.597Z,101977.03
2023-05-19T00:16:40.605Z,101975.84
2023-05-19T00:19:10.047Z,101965.75
2023-05-19T00:21:40.630Z,101974.06
2023-05-19T00:24:07.532Z,101974.06
2023-05-19T00:26:34.351Z,101981.28
2023-05-19T00:29:05.616Z,101969.00
2023-05-19T00:31:33.973Z,101971.53
2023-05-19T00:34:01.252Z,101964.00
2023-05-19T00:36:28.472Z,101969.69
2023-05-19T00:38:56.010Z,101955.69
2023-05-19T00:41:22.766Z,101966.03
2023-05-19T00:43:50.679Z,101960.88
2023-05-19T00:46:18.956Z,101969.75
2023-05-19T00:48:46.015Z,101959.91
2023-05-19T00:51:16.571Z,101964.56
2023-05-19T00:53:48.402Z,101961.78
2023-05-19T00:56:16.674Z,101963.31
2023-05-19T00:58:44.446Z,101963.94
2023-05-19T01:01:12.176Z,101959.63
2023-05-19T01:03:40.800Z,101962.09
2023-05-19T01:06:08.094Z,101956.91
2023-05-19T01:08:37.104Z,101965.47
2023-05-19T01:11:08.285Z,101956.97
2023-05-19T01:13:36.317Z,101958.56
2023-05-19T01:16:18.197Z,101954.19
2023-05-19T01:18:47.593Z,101961.72
2023-05-19T01:21:38.857Z,101966.06
2023-05-19T01:24:13.237Z,101966.97
2023-05-19T01:27:04.966Z,101969.63
2023-05-19T01:30:08.002Z,101964.06
2023-05-19T01:32:35.955Z,101961.31
2023-05-19T01:35:04.477Z,101956.88
2023-05-19T01:37:31.914Z,101960.16
2023-05-19T01:39:58.919Z,101959.69
2023-05-19T01:42:27.247Z,101961.22
2023-05-19T01:44:55.415Z,101959.59
2023-05-19T01:47:22.645Z,101958.63
2023-05-19T01:49:49.324Z,101949.09
2023-05-19T01:52:16.078Z,101949.41
2023-05-19T01:54:42.753Z,101951.03
2023-05-19T01:57:32.342Z,101956.13
2023-05-19T02:00:19.298Z,101953.84
2023-05-19T02:03:23.637Z,101958.78
2023-05-19T02:06:03.410Z,101952.41
2023-05-19T02:08:51.261Z,101956.19
2023-05-19T02:11:40.604Z,101953.94
2023-05-19T02:14:34.115Z,101955.00
2023-05-19T02:17:04.336Z,101948.91
2023-05-19T02:19:35.319Z,101959.75
2023-05-19T02:22:02.253Z,101956.75
2023-05-19T02:24:28.902Z,101959.56
2023-05-19T02:26:55.558Z,101954.84
2023-05-19T02:29:22.098Z,101951.03
2023-05-19T02:31:50.508Z,101958.88
2023-05-19T02:34:17.219Z,101953.03
2023-05-19T02:36:44.147Z,101950.31
2023-05-19T02:39:11.586Z,101949.56
2023-05-19T02:41:38.758Z,101955.16
2023-05-19T02:44:05.530Z,101945.88
2023-05-19T02:46:32.725Z,101946.97
2023-05-19T02:48:59.561Z,101942.78
2023-05-19T02:51:27.729Z,101950.13
2023-05-19T02:53:54.428Z,101949.84
2023-05-19T02:56:21.752Z,101946.59
2023-05-19T02:58:48.535Z,101944.06
2023-05-19T03:01:16.608Z,101944.81
2023-05-19T03:03:43.550Z,101949.50
2023-05-19T03:06:10.223Z,101942.22
2023-05-19T03:08:36.847Z,101939.63
2023-05-19T03:11:03.739Z,101938.91
2023-05-19T03:13:30.424Z,101942.28
2023-05-19T03:15:58.798Z,101937.63
2023-05-19T03:18:28.721Z,101943.97
2023-05-19T03:20:55.544Z,101944.25
2023-05-19T03:23:22.591Z,101939.72
2023-05-19T03:25:49.250Z,101937.28
2023-05-19T03:28:15.963Z,101932.59
2023-05-19T03:30:42.700Z,101935.00
2023-05-19T03:33:17.277Z,101930.00
2023-05-19T03:35:44.715Z,101934.19
2023-05-19T03:38:12.337Z,101937.28
2023-05-19T03:40:41.853Z,101933.75
2023-05-19T03:43:11.031Z,101944.41
2023-05-19T03:45:45.262Z,101938.84
2023-05-19T03:48:34.846Z,101939.53
2023-05-19T03:51:20.050Z,101941.81
2023-05-19T03:53:49.544Z,101943.41
2023-05-19T03:56:18.133Z,101939.13
2023-05-19T03:58:45.063Z,101949.59
2023-05-19T04:01:12.016Z,101945.44
2023-05-19T04:03:38.774Z,101949.16
2023-05-19T04:06:05.852Z,101955.97
2023-05-19T04:08:32.539Z,101954.44
2023-05-19T04:10:59.237Z,101958.81
2023-05-19T04:13:25.953Z,101954.34
2023-05-19T04:15:52.971Z,101961.06
2023-05-19T04:18:19.809Z,101963.41
2023-05-19T04:20:46.483Z,101964.53
2023-05-19T04:23:13.053Z,101961.56
2023-05-19T04:25:40.937Z,101960.19
2023-05-19T04:28:07.797Z,101959.75
2023-05-19T04:30:35.110Z,101959.94
2023-05-19T04:33:03.785Z,101956.28
2023-05-19T04:35:30.935Z,101952.78
2023-05-19T04:37:59.944Z,101955.88
2023-05-19T04:40:31.516Z,101954.25
2023-05-19T04:42:58.989Z,101953.00
2023-05-19T04:45:26.142Z,101947.22
2023-05-19T04:47:58.064Z,101965.72
2023-05-19T04:50:25.302Z,101955.38
2023-05-19T04:52:52.628Z,101956.72
2023-05-19T04:55:19.640Z,101960.50
2023-05-19T04:57:48.025Z,101955.53
2023-05-19T05:00:15.608Z,101955.81
2023-05-19T05:03:05.120Z,101954.69
2023-05-19T05:05:32.826Z,101952.22
2023-05-19T05:08:00.173Z,101948.88
2023-05-19T05:10:32.082Z,101947.88
2023-05-19T05:12:59.279Z,101957.09
2023-05-19T05:15:28.821Z,101942.97
2023-05-19T05:17:58.070Z,101945.66
2023-05-19T05:20:25.450Z,101950.63
2023-05-19T05:22:52.449Z,101950.31
2023-05-19T05:25:20.810Z,101949.97
2023-05-19T05:27:48.657Z,101950.91
2023-05-19T05:30:16.866Z,101947.28
2023-05-19T05:32:43.794Z,101947.00
2023-05-19T05:35:24.045Z,101943.50
2023-05-19T05:37:50.926Z,101944.13
2023-05-19T05:40:17.735Z,101948.50
2023-05-19T05:42:44.538Z,101942.09
2023-05-19T05:45:11.509Z,101941.81
2023-05-19T05:47:41.357Z,101948.13
2023-05-19T05:50:09.102Z,101938.16
2023-05-19T05:52:37.627Z,101943.88
2023-05-19T05:55:05.496Z,101937.00
2023-05-19T05:57:35.320Z,101946.00
2023-05-19T06:00:02.308Z,101942.94
2023-05-19T06:02:30.785Z,101941.03
2023-05-19T06:04:58.620Z,101950.97
2023-05-19T06:07:25.420Z,101940.03
2023-05-19T06:09:52.124Z,101946.31
2023-05-19T06:12:19.382Z,101943.19
2023-05-19T06:14:49.291Z,101942.13
2023-05-19T06:17:37.798Z,101945.38
2023-05-19T06:20:08.533Z,101945.81
2023-05-19T06:22:35.309Z,101940.78
2023-05-19T06:25:05.219Z,101938.47
2023-05-19T06:27:34.882Z,101941.63
2023-05-19T06:30:03.373Z,101945.28
2023-05-19T06:32:35.907Z,101941.91
2023-05-19T06:35:02.582Z,101940.13
2023-05-19T06:37:30.102Z,101936.09
2023-05-19T06:39:57.114Z,101938.56
2023-05-19T06:42:25.390Z,101936.19
2023-05-19T06:45:07.245Z,101932.34
2023-05-19T06:47:33.918Z,101936.19
2023-05-19T06:50:00.751Z,101935.44
2023-05-19T06:52:31.214Z,101934.44
2023-05-19T06:54:58.012Z,101924.44
2023-05-19T06:57:24.980Z,101929.59
2023-05-19T06:59:51.629Z,101933.25
2023-05-19T07:02:18.653Z,101936.13
2023-05-19T07:04:45.361Z,101925.91
2023-05-19T07:07:15.646Z,101925.31
2023-05-19T07:09:43.151Z,101918.41
2023-05-19T07:12:09.843Z,101919.34
2023-05-19T07:14:38.825Z,101927.75
2023-05-19T07:17:05.886Z,101916.16
2023-05-19T07:19:33.652Z,101928.59
2023-05-19T07:22:00.295Z,101928.56
2023-05-19T07:24:27.546Z,101920.88
2023-05-19T07:26:54.224Z,101919.34
2023-05-19T07:29:20.853Z,101917.91
2023-05-19T07:31:47.527Z,101912.72
2023-05-19T07:34:14.190Z,101910.97
2023-05-19T07:36:41.575Z,101916.25
2023-05-19T07:39:08.353Z,101915.69
2023-05-19T07:41:36.370Z,101907.72
2023-05-19T07:44:07.490Z,101910.38
2023-05-19T07:46:35.145Z,101906.06
2023-05-19T07:49:01.770Z,101911.47
2023-05-19T07:51:28.371Z,101908.19
2023-05-19T07:53:54.997Z,101912.53
2023-05-19T07:56:21.764Z,101911.56
2023-05-19T07:58:48.415Z,101903.88
2023-05-19T08:01:15.028Z,101900.41
2023-05-19T08:03:41.660Z,101896.91
2023-05-19T08:06:08.364Z,101908.00
2023-05-19T08:08:34.966Z,101903.88
2023-05-19T08:11:03.603Z,101909.38
2023-05-19T08:13:31.144Z,101900.69
2023-05-19T08:15:59.862Z,101905.91
2023-05-19T08:18:26.820Z,101906.13
2023-05-19T08:20:53.519Z,101902.75
2023-05-19T08:23:20.136Z,101903.72
2023-05-19T08:25:46.867Z,101900.13
2023-05-19T08:28:13.951Z,101894.97
2023-05-19T08:30:40.788Z,101893.09
2023-05-19T08:33:08.442Z,101896.56
2023-05-19T08:35:35.120Z,101887.09
2023-05-19T08:38:01.750Z,101888.06
2023-05-19T08:40:31.495Z,101885.41
2023-05-19T08:42:58.469Z,101884.53
2023-05-19T08:45:25.131Z,101872.31
2023-05-19T08:47:52.348Z,101883.69
2023-05-19T08:50:24.902Z,101876.50
2023-05-19T08:53:28.945Z,101877.63
2023-05-19T08:56:04.685Z,101871.56
2023-05-19T08:58:32.297Z,101864.59
2023-05-19T09:01:00.975Z,101865.63
2023-05-19T09:03:29.124Z,101871.63
2023-05-19T09:05:56.189Z,101874.44
2023-05-19T09:08:22.885Z,101870.78
2023-05-19T09:10:49.484Z,101861.00
2023-05-19T09:13:16.570Z,101858.25
2023-05-19T09:15:45.590Z,101856.78
2023-05-19T09:18:13.844Z,101855.81
2023-05-19T09:20:42.919Z,101862.97
2023-05-19T09:23:15.026Z,101855.09
2023-05-19T09:25:53.918Z,101852.41
2023-05-19T09:28:28.057Z,101854.28
2023-05-19T09:31:05.510Z,101849.88
2023-05-19T09:33:45.505Z,101842.03
2023-05-19T09:36:13.829Z,101839.47
2023-05-19T09:38:40.657Z,101837.72
2023-05-19T09:41:08.766Z,101840.38
2023-05-19T09:43:36.462Z,101834.22
2023-05-19T09:46:08.086Z,101835.03
2023-05-19T09:48:36.561Z,101832.47
2023-05-19T09:51:06.219Z,101832.47
2023-05-19T09:53:34.172Z,101828.06
2023-05-19T09:56:01.985Z,101823.69
2023-05-19T09:58:35.189Z,101815.72
2023-05-19T10:01:03.728Z,101817.47
2023-05-19T10:03:33.004Z,101814.94
2023-05-19T10:06:01.367Z,101814.94
2023-05-19T10:08:30.636Z,101820.19
2023-05-19T10:10:57.870Z,101828.06
2023-05-19T10:13:25.830Z,101817.47
2023-05-19T10:15:59.027Z,101810.09
2023-05-19T10:18:27.853Z,101815.31
2023-05-19T10:20:54.971Z,101802.31
2023-05-19T10:23:22.537Z,101808.47
2023-05-19T10:25:53.731Z,101807.78
2023-05-19T10:28:26.609Z,101801.56
2023-05-19T10:30:56.036Z,101801.38
2023-05-19T10:33:29.449Z,101799.63
2023-05-19T10:36:33.336Z,101796.91
2023-05-19T10:39:13.232Z,101789.03
2023-05-19T10:41:39.799Z,101794.59
2023-05-19T10:44:35.119Z,101792.78
2023-05-19T10:47:01.824Z,101797.34
2023-05-19T10:49:28.851Z,101787.66
2023-05-19T10:51:58.840Z,101791.84
2023-05-19T10:54:43.446Z,101787.13
2023-05-19T10:57:15.002Z,101785.78
2023-05-19T10:59:42.048Z,101781.41
2023-05-19T11:02:09.294Z,101786.56
2023-05-19T11:04:40.093Z,101775.25
2023-05-19T11:07:09.452Z,101782.22
2023-05-19T11:09:42.916Z,101790.28
2023-05-19T11:12:10.948Z,101778.78
2023-05-19T11:14:37.829Z,101772.34
2023-05-19T11:17:05.589Z,101778.25
2023-05-19T11:19:35.135Z,101759.16
2023-05-19T11:22:11.393Z,101771.00
2023-05-19T11:24:50.533Z,101774.81
2023-05-19T11:27:31.329Z,101763.63
2023-05-19T11:30:20.070Z,101769.91
2023-05-19T11:32:50.558Z,101776.22
2023-05-19T11:35:19.079Z,101760.31
2023-05-19T11:37:47.685Z,101769.59
2023-05-19T11:40:15.689Z,101772.50
2023-05-19T11:42:42.344Z,101762.88
2023-05-19T11:45:09.714Z,101767.34
2023-05-19T11:47:50.705Z,101769.94
2023-05-19T11:50:24.312Z,101765.56
2023-05-19T11:52:55.138Z,101764.41
2023-05-19T11:55:22.832Z,101772.25
2023-05-19T11:58:03.887Z,101767.84
2023-05-19T12:00:40.017Z,101766.16
2023-05-19T12:03:07.823Z,101759.78
2023-05-19T12:05:41.936Z,101759.34
2023-05-19T12:08:10.334Z,101748.69
2023-05-19T12:10:38.371Z,101741.34
2023-05-19T12:13:08.072Z,101742.31
2023-05-19T12:15:35.281Z,101752.91
2023-05-19T12:18:02.879Z,101759.03
2023-05-19T12:20:32.602Z,101745.19
2023-05-19T12:23:00.225Z,101741.81
2023-05-19T12:25:27.748Z,101745.31
2023-05-19T12:27:58.776Z,101743.84
2023-05-19T12:30:29.811Z,101757.59
2023-05-19T12:33:00.195Z,101756.81
2023-05-19T12:35:33.634Z,101753.06
2023-05-19T12:38:06.880Z,101743.16
2023-05-19T12:40:37.778Z,101741.22
2023-05-19T12:43:05.617Z,101731.34
2023-05-19T12:45:36.767Z,101735.63
2023-05-19T12:48:06.980Z,101715.97
2023-05-19T12:50:36.558Z,101715.84
2023-05-19T12:53:03.587Z,101718.91
2023-05-19T12:55:30.466Z,101735.00
2023-05-19T12:57:58.594Z,101723.16
2023-05-19T13:00:28.927Z,101719.31
2023-05-19T13:03:14.611Z,101725.03
2023-05-19T13:05:46.549Z,101718.59
2023-05-19T13:08:18.506Z,101731.03
2023-05-19T13:10:46.473Z,101722.28
2023-05-19T13:13:13.558Z,101723.75
2023-05-19T13:15:44.958Z,101717.16
2023-05-19T13:18:13.757Z,101713.75
2023-05-19T13:20:42.066Z,101705.41
2023-05-19T13:23:10.891Z,101700.78
2023-05-19T13:25:37.694Z,101703.94
2023-05-19T13:28:07.993Z,101711.31
2023-05-19T13:30:37.914Z,101697.00
2023-05-19T13:33:05.455Z,101714.56
2023-05-19T13:35:37.553Z,101705.19
2023-05-19T13:38:05.641Z,101700.19
2023-05-19T13:40:35.221Z,101695.06
2023-05-19T13:43:04.601Z,101707.50
2023-05-19T13:45:31.457Z,101715.50
2023-05-19T13:47:58.250Z,101706.97
2023-05-19T13:50:25.079Z,101700.41
2023-05-19T13:52:52.006Z,101702.09
2023-05-19T13:55:19.054Z,101691.69
2023-05-19T13:57:45.731Z,101687.72
2023-05-19T14:00:12.717Z,101680.34
2023-05-19T14:02:40.050Z,101696.75
2023-05-19T14:05:07.468Z,101698.28
2023-05-19T14:07:37.077Z,101701.41
2023-05-19T14:10:06.386Z,101698.75
2023-05-19T14:12:43.584Z,101687.81
2023-05-19T14:15:17.956Z,101687.44
2023-05-19T14:17:44.808Z,101681.31
2023-05-19T14:20:12.501Z,101686.94
2023-05-19T14:22:39.112Z,101687.19
2023-05-19T14:25:06.431Z,101685.25
2023-05-19T14:27:33.068Z,101691.47
2023-05-19T14:29:59.710Z,101690.75
2023-05-19T14:32:28.655Z,101692.09
2023-05-19T14:34:56.824Z,101677.69
2023-05-19T14:37:24.174Z,101679.28
2023-05-19T14:39:50.896Z,101676.47
2023-05-19T14:42:17.582Z,101683.25
2023-05-19T14:44:44.207Z,101687.84
2023-05-19T14:47:12.296Z,101684.41
2023-05-19T14:49:39.027Z,101690.47
2023-05-19T14:52:05.806Z,101687.91
2023-05-19T14:54:32.515Z,101687.78
2023-05-19T14:56:59.248Z,101677.03
2023-05-19T14:59:25.993Z,101678.16
2023-05-19T15:01:52.663Z,101671.03
2023-05-19T15:04:19.421Z,101689.91
2023-05-19T15:06:48.198Z,101686.44
2023-05-19T15:09:19.095Z,101691.44
2023-05-19T15:11:45.977Z,101690.69
2023-05-19T15:14:12.882Z,101684.56
2023-05-19T15:16:39.742Z,101676.16
2023-05-19T15:19:31.607Z,101686.59
2023-05-19T15:21:58.463Z,101682.06
2023-05-19T15:24:25.365Z,101670.34
2023-05-19T15:26:52.514Z,101659.81
2023-05-19T15:29:19.230Z,101672.84
2023-05-19T15:31:46.300Z,101670.03
2023-05-19T15:34:13.188Z,101660.03
2023-05-19T15:36:39.921Z,101661.66
2023-05-19T15:39:06.694Z,101660.84
2023-05-19T15:41:33.411Z,101665.25
2023-05-19T15:44:00.651Z,101657.53
2023-05-19T15:46:27.631Z,101664.00
2023-05-19T15:48:54.660Z,101666.19
2023-05-19T15:51:21.557Z,101670.75
2023-05-19T15:53:48.348Z,101661.97
2023-05-19T15:56:15.351Z,101662.72
2023-05-19T15:58:42.245Z,101658.13
2023-05-19T16:01:09.095Z,101649.22
2023-05-19T16:03:35.836Z,101638.16
2023-05-19T16:06:02.951Z,101651.19
2023-05-19T16:08:29.923Z,101646.72
2023-05-19T16:10:56.808Z,101641.22
2023-05-19T16:13:23.724Z,101638.47
2023-05-19T16:15:50.768Z,101639.34
2023-05-19T16:18:17.760Z,101648.19
2023-05-19T16:20:44.773Z,101640.13
2023-05-19T16:23:11.446Z,101643.47
2023-05-19T16:25:38.154Z,101641.38
2023-05-19T16:28:05.273Z,101638.63
2023-05-19T16:30:32.221Z,101643.13
2023-05-19T16:32:59.342Z,101645.34
2023-05-19T16:35:27.888Z,101646.25
2023-05-19T16:37:54.949Z,101643.69
2023-05-19T16:40:21.638Z,101640.31
2023-05-19T16:42:48.334Z,101635.09
2023-05-19T16:45:17.511Z,101635.03
2023-05-19T16:47:44.685Z,101631.38
2023-05-19T16:50:14.661Z,101623.34
2023-05-19T16:52:41.308Z,101632.06
2023-05-19T16:55:08.428Z,101632.06
2023-05-19T16:57:35.031Z,101621.50
2023-05-19T17:00:01.710Z,101629.53
2023-05-19T17:02:28.540Z,101617.16
2023-05-19T17:04:55.565Z,101623.94
2023-05-19T17:07:22.267Z,101624.09
2023-05-19T17:09:49.066Z,101622.31
2023-05-19T17:12:15.924Z,101628.06
2023-05-19T17:14:43.533Z,101627.31
2023-05-19T17:17:10.476Z,101625.41
2023-05-19T17:19:37.221Z,101623.00
2023-05-19T17:22:04.221Z,101628.97
2023-05-19T17:24:33.128Z,101625.34
2023-05-19T17:27:00.544Z,101625.28
2023-05-19T17:29:27.932Z,101630.63
2023-05-19T17:31:55.475Z,101627.09
2023-05-19T17:34:22.209Z,101617.75
2023-05-19T17:36:49.734Z,101614.19
2023-05-19T17:39:16.625Z,101624.75
2023-05-19T17:41:43.405Z,101627.47
2023-05-19T17:44:10.044Z,101626.53
2023-05-19T17:46:38.796Z,101625.53
2023-05-19T17:49:06.325Z,101622.03
2023-05-19T17:51:33.357Z,101626.53
2023-05-19T17:54:00.388Z,101625.72
2023-05-19T17:56:30.344Z,101624.75
2023-05-19T17:58:57.141Z,101628.28
2023-05-19T18:01:25.748Z,101633.53
2023-05-19T18:03:52.872Z,101637.06
2023-05-19T18:06:20.385Z,101628.41
2023-05-19T18:08:50.365Z,101633.75
2023-05-19T18:11:18.105Z,101630.22
2023-05-19T18:13:44.879Z,101630.34
2023-05-19T18:16:12.292Z,101632.03
2023-05-19T18:18:41.143Z,101640.81
2023-05-19T18:21:08.024Z,101648.72
2023-05-19T18:23:34.727Z,101651.38
2023-05-19T18:26:01.415Z,101653.09
2023-05-19T18:28:29.647Z,101645.19
2023-05-19T18:31:00.779Z,101648.66
2023-05-19T18:33:28.726Z,101656.53
2023-05-19T18:35:57.776Z,101660.16
2023-05-19T18:38:24.475Z,101654.91
2023-05-19T18:40:51.322Z,101647.94
2023-05-19T18:43:21.724Z,101653.31
2023-05-19T18:45:48.585Z,101648.09
2023-05-19T18:48:15.806Z,101654.22
2023-05-19T18:50:44.521Z,101657.75
2023-05-19T18:53:11.905Z,101660.38
2023-05-19T18:55:38.696Z,101660.41
2023-05-19T18:58:06.182Z,101664.81
2023-05-19T19:00:37.537Z,101669.22
2023-05-19T19:03:04.543Z,101672.72
2023-05-19T19:05:31.311Z,101674.50
2023-05-19T19:07:58.078Z,101675.38
2023-05-19T19:10:24.699Z,101672.75
2023-05-19T19:12:51.325Z,101671.88
2023-05-19T19:15:17.978Z,101673.66
2023-05-19T19:17:45.652Z,101674.50
2023-05-19T19:20:12.788Z,101686.75
2023-05-19T19:22:39.435Z,101688.53
2023-05-19T19:25:06.297Z,101684.13
2023-05-19T19:27:35.479Z,101680.63
2023-05-19T19:30:02.277Z,101688.50
2023-05-19T19:32:31.309Z,101687.66
2023-05-19T19:34:58.219Z,101685.88
2023-05-19T19:37:24.926Z,101692.00
2023-05-19T19:39:51.641Z,101688.50
2023-05-19T19:42:18.843Z,101690.25
2023-05-19T19:44:45.590Z,101692.88
2023-05-19T19:47:12.192Z,101695.53
2023-05-19T19:49:38.792Z,101703.44
2023-05-19T19:52:05.870Z,101698.13
2023-05-19T19:54:32.609Z,101698.13
2023-05-19T19:56:59.233Z,101709.41
2023-05-19T19:59:26.902Z,101712.03
2023-05-19T20:01:53.643Z,101706.75
2023-05-19T20:04:20.785Z,101704.13
2023-05-19T20:06:47.507Z,101711.94
2023-05-19T20:09:14.190Z,101705.00
2023-05-19T20:11:40.942Z,101703.22
2023-05-19T20:14:07.728Z,101700.56
2023-05-19T20:16:34.507Z,101712.81
2023-05-19T20:19:01.673Z,101712.78
2023-05-19T20:21:28.325Z,101714.53
2023-05-19T20:23:55.003Z,101719.72
2023-05-19T20:26:22.402Z,101725.00
2023-05-19T20:28:49.162Z,101720.59
2023-05-19T20:31:15.854Z,101716.22
2023-05-19T20:33:42.506Z,101724.09
2023-05-19T20:36:10.872Z,101717.09
2023-05-19T20:38:37.541Z,101714.41
2023-05-19T20:41:04.194Z,101707.38
2023-05-19T20:43:32.060Z,101712.56
2023-05-19T20:45:59.823Z,101712.41
2023-05-19T20:48:26.698Z,101699.31
2023-05-19T20:50:54.278Z,101708.16
2023-05-19T20:53:21.703Z,101707.25
2023-05-19T20:55:48.674Z,101705.50
2023-05-19T20:58:15.498Z,101703.69
2023-05-19T21:00:42.262Z,101705.41
2023-05-19T21:03:09.090Z,101709.88
2023-05-19T21:05:36.344Z,101709.81
2023-05-19T21:08:03.388Z,101715.00
2023-05-19T21:10:30.033Z,101719.31
2023-05-19T21:12:58.747Z,101714.03
2023-05-19T21:15:26.924Z,101728.84
2023-05-19T21:17:53.605Z,101726.00
2023-05-19T21:20:20.529Z,101733.75
2023-05-19T21:22:47.118Z,101729.38
2023-05-19T21:25:13.844Z,101726.78
2023-05-19T21:27:40.654Z,101720.63
2023-05-19T21:30:07.927Z,101723.09
2023-05-19T21:32:34.643Z,101723.13
2023-05-19T21:35:01.505Z,101726.50
2023-05-19T21:37:28.231Z,101723.13
2023-05-19T21:39:54.840Z,101717.03
2023-05-19T21:42:21.577Z,101731.00
2023-05-19T21:44:48.211Z,101718.72
2023-05-19T21:47:15.796Z,101722.09
2023-05-19T21:49:42.628Z,101720.38
2023-05-19T21:52:09.605Z,101717.75
2023-05-19T21:54:36.512Z,101716.88
2023-05-19T21:57:03.577Z,101715.19
2023-05-19T21:59:30.515Z,101713.34
2023-05-19T22:01:57.202Z,101730.75
2023-05-19T22:04:23.927Z,101721.97
2023-05-19T22:06:50.555Z,101721.09
2023-05-19T22:09:18.034Z,101724.59
2023-05-19T22:11:44.917Z,101724.44
2023-05-19T22:14:11.703Z,101722.66
2023-05-19T22:16:38.417Z,101724.50
2023-05-19T22:19:05.228Z,101720.22
2023-05-19T22:21:32.041Z,101717.59
2023-05-19T22:23:58.764Z,101723.38
2023-05-19T22:26:26.014Z,101725.09
2023-05-19T22:28:53.349Z,101722.31
2023-05-19T22:31:20.010Z,101723.00
2023-05-19T22:33:46.730Z,101724.63
2023-05-19T22:36:15.952Z,101726.38
2023-05-19T22:38:42.637Z,101723.81
2023-05-19T22:41:09.309Z,101725.38
2023-05-19T22:43:36.016Z,101721.00
2023-05-19T22:46:02.718Z,101722.03
2023-05-19T22:48:30.545Z,101725.28
2023-05-19T22:50:57.385Z,101723.59
2023-05-19T22:53:23.991Z,101724.50
2023-05-19T22:55:50.658Z,101709.66
2023-05-19T22:58:17.227Z,101721.88
2023-05-19T23:00:43.835Z,101713.97
2023-05-19T23:03:11.323Z,101723.69
2023-05-19T23:05:37.980Z,101720.09
2023-05-19T23:08:04.816Z,101721.06
2023-05-19T23:10:31.433Z,101723.63
2023-05-19T23:12:58.034Z,101723.41
2023-05-19T23:15:24.707Z,101723.47
2023-05-19T23:17:51.547Z,101722.75
2023-05-19T23:20:18.340Z,101726.22
2023-05-19T23:22:44.966Z,101726.00
2023-05-19T23:25:12.211Z,101725.94
2023-05-19T23:27:38.894Z,101722.59
2023-05-19T23:30:06.542Z,101728.72
2023-05-19T23:32:33.289Z,101719.97
2023-05-19T23:35:11.496Z,101719.03
2023-05-19T23:37:38.099Z,101713.88
2023-05-19T23:40:06.471Z,101712.91
2023-05-19T23:42:33.066Z,101716.25
2023-05-19T23:44:59.718Z,101717.16
2023-05-19T23:47:26.666Z,101712.63
2023-05-19T23:49:53.332Z,101716.25
2023-05-19T23:52:19.916Z,101713.59
2023-05-19T23:54:46.575Z,101712.75
2023-05-19T23:57:13.313Z,101713.66
2023-05-19T23:59:39.909Z,101708.41
